sensor_id;sensor_type;location;lat;lon;timestamp;temperature;humidity
2363;DHT22;64265;51.664;7.626;2023-07-16T00:01:13;24.70;97.80
2363;DHT22;64265;51.664;7.626;2023-07-16T00:03:41;24.70;97.80
2363;DHT22;64265;51.664;7.626;2023-07-16T00:06:07;24.70;97.80
2363;DHT22;64265;51.664;7.626;2023-07-16T00:08:34;24.70;97.80
2363;DHT22;64265;51.664;7.626;2023-07-16T00:11:02;24.70;97.80
2363;DHT22;64265;51.664;7.626;2023-07-16T00:13:29;24.70;97.80
2363;DHT22;64265;51.664;7.626;2023-07-16T00:15:56;24.70;97.80
2363;DHT22;64265;51.664;7.626;2023-07-16T00:18:22;24.70;97.80
2363;DHT22;64265;51.664;7.626;2023-07-16T00:20:50;24.70;97.70
2363;DHT22;64265;51.664;7.626;2023-07-16T00:23:17;24.70;97.70
2363;DHT22;64265;51.664;7.626;2023-07-16T00:25:44;24.70;97.70
2363;DHT22;64265;51.664;7.626;2023-07-16T00:28:10;24.70;97.70
2363;DHT22;64265;51.664;7.626;2023-07-16T00:30:37;24.70;97.70
2363;DHT22;64265;51.664;7.626;2023-07-16T00:33:04;24.70;97.70
2363;DHT22;64265;51.664;7.626;2023-07-16T00:35:31;24.70;97.60
2363;DHT22;64265;51.664;7.626;2023-07-16T00:37:59;24.70;97.60
2363;DHT22;64265;51.664;7.626;2023-07-16T00:40:25;24.70;97.60
2363;DHT22;64265;51.664;7.626;2023-07-16T00:42:52;24.70;97.60
2363;DHT22;64265;51.664;7.626;2023-07-16T00:45:19;24.70;97.60
2363;DHT22;64265;51.664;7.626;2023-07-16T00:47:46;24.70;97.60
2363;DHT22;64265;51.664;7.626;2023-07-16T00:50:13;24.70;97.50
2363;DHT22;64265;51.664;7.626;2023-07-16T00:52:40;24.70;97.50
2363;DHT22;64265;51.664;7.626;2023-07-16T00:55:08;24.70;97.50
2363;DHT22;64265;51.664;7.626;2023-07-16T00:57:35;24.60;97.40
2363;DHT22;64265;51.664;7.626;2023-07-16T01:00:03;24.60;97.40
2363;DHT22;64265;51.664;7.626;2023-07-16T01:02:30;24.60;97.40
2363;DHT22;64265;51.664;7.626;2023-07-16T01:04:57;24.60;97.40
2363;DHT22;64265;51.664;7.626;2023-07-16T01:07:25;24.60;97.40
2363;DHT22;64265;51.664;7.626;2023-07-16T01:09:53;24.60;97.30
2363;DHT22;64265;51.664;7.626;2023-07-16T01:12:22;24.60;97.30
2363;DHT22;64265;51.664;7.626;2023-07-16T01:14:51;24.60;97.30
2363;DHT22;64265;51.664;7.626;2023-07-16T01:17:18;24.60;97.30
2363;DHT22;64265;51.664;7.626;2023-07-16T01:19:45;24.60;97.30
2363;DHT22;64265;51.664;7.626;2023-07-16T01:22:35;24.70;97.30
2363;DHT22;64265;51.664;7.626;2023-07-16T01:25:15;24.60;97.20
2363;DHT22;64265;51.664;7.626;2023-07-16T01:28:10;24.60;97.20
2363;DHT22;64265;51.664;7.626;2023-07-16T01:30:44;24.60;97.10
2363;DHT22;64265;51.664;7.626;2023-07-16T01:33:12;24.60;97.20
2363;DHT22;64265;51.664;7.626;2023-07-16T01:35:40;24.60;97.10
2363;DHT22;64265;51.664;7.626;2023-07-16T01:38:12;24.60;97.20
2363;DHT22;64265;51.664;7.626;2023-07-16T01:40:39;24.60;97.10
2363;DHT22;64265;51.664;7.626;2023-07-16T01:43:06;24.60;97.10
2363;DHT22;64265;51.664;7.626;2023-07-16T01:45:32;24.60;97.10
2363;DHT22;64265;51.664;7.626;2023-07-16T01:48:05;24.60;97.10
2363;DHT22;64265;51.664;7.626;2023-07-16T01:50:37;24.60;97.00
2363;DHT22;64265;51.664;7.626;2023-07-16T01:53:04;24.60;97.10
2363;DHT22;64265;51.664;7.626;2023-07-16T01:55:30;24.60;97.00
2363;DHT22;64265;51.664;7.626;2023-07-16T01:57:57;24.60;97.00
2363;DHT22;64265;51.664;7.626;2023-07-16T02:00:24;24.60;97.00
2363;DHT22;64265;51.664;7.626;2023-07-16T02:02:50;24.60;97.00
2363;DHT22;64265;51.664;7.626;2023-07-16T02:05:18;24.60;97.00
2363;DHT22;64265;51.664;7.626;2023-07-16T02:07:45;24.60;97.00
2363;DHT22;64265;51.664;7.626;2023-07-16T02:10:12;24.60;96.90
2363;DHT22;64265;51.664;7.626;2023-07-16T02:12:39;24.60;96.90
2363;DHT22;64265;51.664;7.626;2023-07-16T02:15:06;24.60;96.90
2363;DHT22;64265;51.664;7.626;2023-07-16T02:17:33;24.60;96.90
2363;DHT22;64265;51.664;7.626;2023-07-16T02:19:59;24.60;96.90
2363;DHT22;64265;51.664;7.626;2023-07-16T02:22:27;24.60;96.90
2363;DHT22;64265;51.664;7.626;2023-07-16T02:24:54;24.60;96.90
2363;DHT22;64265;51.664;7.626;2023-07-16T02:27:21;24.60;96.80
2363;DHT22;64265;51.664;7.626;2023-07-16T02:29:47;24.60;97.20
2363;DHT22;64265;51.664;7.626;2023-07-16T02:32:14;24.60;96.80
2363;DHT22;64265;51.664;7.626;2023-07-16T02:34:41;24.60;97.10
2363;DHT22;64265;51.664;7.626;2023-07-16T02:37:07;24.60;96.80
2363;DHT22;64265;51.664;7.626;2023-07-16T02:39:35;24.60;96.70
2363;DHT22;64265;51.664;7.626;2023-07-16T02:42:03;24.60;96.70
2363;DHT22;64265;51.664;7.626;2023-07-16T02:44:30;24.60;96.70
2363;DHT22;64265;51.664;7.626;2023-07-16T02:46:56;24.60;96.70
2363;DHT22;64265;51.664;7.626;2023-07-16T02:49:23;24.60;96.70
2363;DHT22;64265;51.664;7.626;2023-07-16T02:51:50;24.60;96.70
2363;DHT22;64265;51.664;7.626;2023-07-16T02:54:17;24.60;96.70
2363;DHT22;64265;51.664;7.626;2023-07-16T02:56:45;24.60;96.60
2363;DHT22;64265;51.664;7.626;2023-07-16T02:59:11;24.60;96.60
2363;DHT22;64265;51.664;7.626;2023-07-16T03:01:38;24.60;96.60
2363;DHT22;64265;51.664;7.626;2023-07-16T03:04:05;24.60;96.60
2363;DHT22;64265;51.664;7.626;2023-07-16T03:06:31;24.50;96.50
2363;DHT22;64265;51.664;7.626;2023-07-16T03:08:58;24.60;96.60
2363;DHT22;64265;51.664;7.626;2023-07-16T03:11:25;24.50;96.50
2363;DHT22;64265;51.664;7.626;2023-07-16T03:13:53;24.60;96.60
2363;DHT22;64265;51.664;7.626;2023-07-16T03:16:19;24.60;96.60
2363;DHT22;64265;51.664;7.626;2023-07-16T03:18:46;24.50;96.50
2363;DHT22;64265;51.664;7.626;2023-07-16T03:21:13;24.50;96.50
2363;DHT22;64265;51.664;7.626;2023-07-16T03:23:40;24.50;96.50
2363;DHT22;64265;51.664;7.626;2023-07-16T03:26:07;24.50;96.50
2363;DHT22;64265;51.664;7.626;2023-07-16T03:28:33;24.50;96.40
2363;DHT22;64265;51.664;7.626;2023-07-16T03:31:01;24.60;96.50
2363;DHT22;64265;51.664;7.626;2023-07-16T03:33:28;24.50;96.40
2363;DHT22;64265;51.664;7.626;2023-07-16T03:35:55;24.50;96.40
2363;DHT22;64265;51.664;7.626;2023-07-16T03:38:21;24.50;96.40
2363;DHT22;64265;51.664;7.626;2023-07-16T03:40:49;24.50;96.40
2363;DHT22;64265;51.664;7.626;2023-07-16T03:43:17;24.50;96.30
2363;DHT22;64265;51.664;7.626;2023-07-16T03:45:43;24.50;96.40
2363;DHT22;64265;51.664;7.626;2023-07-16T03:48:11;24.50;96.40
2363;DHT22;64265;51.664;7.626;2023-07-16T03:50:38;24.50;96.30
2363;DHT22;64265;51.664;7.626;2023-07-16T03:53:05;24.50;96.30
2363;DHT22;64265;51.664;7.626;2023-07-16T03:55:31;24.50;96.30
2363;DHT22;64265;51.664;7.626;2023-07-16T03:57:58;24.50;96.30
2363;DHT22;64265;51.664;7.626;2023-07-16T04:00:25;24.50;96.30
2363;DHT22;64265;51.664;7.626;2023-07-16T04:02:51;24.50;96.30
2363;DHT22;64265;51.664;7.626;2023-07-16T04:05:20;24.50;96.30
2363;DHT22;64265;51.664;7.626;2023-07-16T04:07:46;24.50;96.30
2363;DHT22;64265;51.664;7.626;2023-07-16T04:10:13;24.50;96.20
2363;DHT22;64265;51.664;7.626;2023-07-16T04:12:40;24.50;96.20
2363;DHT22;64265;51.664;7.626;2023-07-16T04:15:08;24.50;96.20
2363;DHT22;64265;51.664;7.626;2023-07-16T04:17:36;24.50;96.20
2363;DHT22;64265;51.664;7.626;2023-07-16T04:20:03;24.50;96.20
2363;DHT22;64265;51.664;7.626;2023-07-16T04:22:33;24.50;96.20
2363;DHT22;64265;51.664;7.626;2023-07-16T04:24:59;24.50;96.20
2363;DHT22;64265;51.664;7.626;2023-07-16T04:27:26;24.50;96.20
2363;DHT22;64265;51.664;7.626;2023-07-16T04:29:53;24.50;96.20
2363;DHT22;64265;51.664;7.626;2023-07-16T04:32:20;24.50;96.20
2363;DHT22;64265;51.664;7.626;2023-07-16T04:34:46;24.50;96.20
2363;DHT22;64265;51.664;7.626;2023-07-16T04:37:13;24.50;96.20
2363;DHT22;64265;51.664;7.626;2023-07-16T04:39:41;24.50;96.20
2363;DHT22;64265;51.664;7.626;2023-07-16T04:42:08;24.50;96.10
2363;DHT22;64265;51.664;7.626;2023-07-16T04:44:34;24.50;96.10
2363;DHT22;64265;51.664;7.626;2023-07-16T04:47:01;24.50;96.10
2363;DHT22;64265;51.664;7.626;2023-07-16T04:49:28;24.50;96.10
2363;DHT22;64265;51.664;7.626;2023-07-16T04:51:54;24.50;96.10
2363;DHT22;64265;51.664;7.626;2023-07-16T04:54:21;24.50;96.10
2363;DHT22;64265;51.664;7.626;2023-07-16T04:56:49;24.50;96.10
2363;DHT22;64265;51.664;7.626;2023-07-16T04:59:16;24.50;96.10
2363;DHT22;64265;51.664;7.626;2023-07-16T05:01:42;24.40;96.10
2363;DHT22;64265;51.664;7.626;2023-07-16T05:04:09;24.50;96.10
2363;DHT22;64265;51.664;7.626;2023-07-16T05:06:36;24.50;96.40
2363;DHT22;64265;51.664;7.626;2023-07-16T05:09:02;24.50;96.10
2363;DHT22;64265;51.664;7.626;2023-07-16T05:11:29;24.40;96.00
2363;DHT22;64265;51.664;7.626;2023-07-16T05:13:57;24.40;96.00
2363;DHT22;64265;51.664;7.626;2023-07-16T05:16:24;24.40;96.00
2363;DHT22;64265;51.664;7.626;2023-07-16T05:18:50;24.40;96.00
2363;DHT22;64265;51.664;7.626;2023-07-16T05:21:17;24.40;96.00
2363;DHT22;64265;51.664;7.626;2023-07-16T05:23:44;24.40;95.90
2363;DHT22;64265;51.664;7.626;2023-07-16T05:26:10;24.50;96.00
2363;DHT22;64265;51.664;7.626;2023-07-16T05:28:37;24.40;96.00
2363;DHT22;64265;51.664;7.626;2023-07-16T05:31:05;24.40;96.00
2363;DHT22;64265;51.664;7.626;2023-07-16T05:33:32;24.40;95.90
2363;DHT22;64265;51.664;7.626;2023-07-16T05:35:59;24.40;95.90
2363;DHT22;64265;51.664;7.626;2023-07-16T05:38:25;24.40;95.90
2363;DHT22;64265;51.664;7.626;2023-07-16T05:40:52;24.40;95.90
2363;DHT22;64265;51.664;7.626;2023-07-16T05:43:19;24.40;96.00
2363;DHT22;64265;51.664;7.626;2023-07-16T05:45:45;24.40;96.00
2363;DHT22;64265;51.664;7.626;2023-07-16T05:48:13;24.40;96.10
2363;DHT22;64265;51.664;7.626;2023-07-16T05:50:40;24.40;96.00
2363;DHT22;64265;51.664;7.626;2023-07-16T05:53:09;24.40;96.00
2363;DHT22;64265;51.664;7.626;2023-07-16T05:55:36;24.40;96.00
2363;DHT22;64265;51.664;7.626;2023-07-16T05:58:03;24.40;96.00
2363;DHT22;64265;51.664;7.626;2023-07-16T06:00:29;24.40;96.00
2363;DHT22;64265;51.664;7.626;2023-07-16T06:02:56;24.40;96.00
2363;DHT22;64265;51.664;7.626;2023-07-16T06:05:24;24.40;96.00
2363;DHT22;64265;51.664;7.626;2023-07-16T06:07:52;24.40;96.40
2363;DHT22;64265;51.664;7.626;2023-07-16T06:10:18;24.40;96.00
2363;DHT22;64265;51.664;7.626;2023-07-16T06:12:45;24.40;96.00
2363;DHT22;64265;51.664;7.626;2023-07-16T06:15:12;24.40;96.20
2363;DHT22;64265;51.664;7.626;2023-07-16T06:17:38;24.40;96.10
2363;DHT22;64265;51.664;7.626;2023-07-16T06:20:06;24.40;96.10
2363;DHT22;64265;51.664;7.626;2023-07-16T06:22:35;24.40;96.10
2363;DHT22;64265;51.664;7.626;2023-07-16T06:25:01;24.40;96.00
2363;DHT22;64265;51.664;7.626;2023-07-16T06:27:30;24.40;96.00
2363;DHT22;64265;51.664;7.626;2023-07-16T06:29:56;24.40;96.10
2363;DHT22;64265;51.664;7.626;2023-07-16T06:32:23;24.40;96.10
2363;DHT22;64265;51.664;7.626;2023-07-16T06:34:50;24.40;96.10
2363;DHT22;64265;51.664;7.626;2023-07-16T06:37:16;24.40;96.20
2363;DHT22;64265;51.664;7.626;2023-07-16T06:39:44;24.40;96.10
2363;DHT22;64265;51.664;7.626;2023-07-16T06:42:11;24.40;96.10
2363;DHT22;64265;51.664;7.626;2023-07-16T06:44:38;24.40;96.10
2363;DHT22;64265;51.664;7.626;2023-07-16T06:47:05;24.40;96.10
2363;DHT22;64265;51.664;7.626;2023-07-16T06:49:31;24.40;96.10
2363;DHT22;64265;51.664;7.626;2023-07-16T06:52:00;24.40;96.10
2363;DHT22;64265;51.664;7.626;2023-07-16T06:54:27;24.40;96.00
2363;DHT22;64265;51.664;7.626;2023-07-16T06:56:55;24.30;96.00
2363;DHT22;64265;51.664;7.626;2023-07-16T06:59:22;24.30;96.00
2363;DHT22;64265;51.664;7.626;2023-07-16T07:01:49;24.30;95.90
2363;DHT22;64265;51.664;7.626;2023-07-16T07:04:15;24.30;95.90
2363;DHT22;64265;51.664;7.626;2023-07-16T07:06:42;24.30;95.90
2363;DHT22;64265;51.664;7.626;2023-07-16T07:09:09;24.30;95.90
2363;DHT22;64265;51.664;7.626;2023-07-16T07:11:35;24.30;95.90
2363;DHT22;64265;51.664;7.626;2023-07-16T07:14:03;24.30;95.80
2363;DHT22;64265;51.664;7.626;2023-07-16T07:16:30;24.30;95.80
2363;DHT22;64265;51.664;7.626;2023-07-16T07:18:57;24.30;95.80
2363;DHT22;64265;51.664;7.626;2023-07-16T07:21:24;24.30;95.80
2363;DHT22;64265;51.664;7.626;2023-07-16T07:23:50;24.30;95.80
2363;DHT22;64265;51.664;7.626;2023-07-16T07:26:17;24.30;95.80
2363;DHT22;64265;51.664;7.626;2023-07-16T07:28:44;24.30;95.70
2363;DHT22;64265;51.664;7.626;2023-07-16T07:31:12;24.30;95.70
2363;DHT22;64265;51.664;7.626;2023-07-16T07:33:38;24.30;95.70
2363;DHT22;64265;51.664;7.626;2023-07-16T07:36:05;24.30;95.70
2363;DHT22;64265;51.664;7.626;2023-07-16T07:38:32;24.30;95.70
2363;DHT22;64265;51.664;7.626;2023-07-16T07:40:59;24.30;95.60
2363;DHT22;64265;51.664;7.626;2023-07-16T07:43:26;24.30;95.70
2363;DHT22;64265;51.664;7.626;2023-07-16T07:45:52;24.30;95.70
2363;DHT22;64265;51.664;7.626;2023-07-16T07:48:20;24.30;95.60
2363;DHT22;64265;51.664;7.626;2023-07-16T07:50:48;24.30;95.70
2363;DHT22;64265;51.664;7.626;2023-07-16T07:53:14;24.30;95.00
2363;DHT22;64265;51.664;7.626;2023-07-16T07:55:43;24.30;93.40
2363;DHT22;64265;51.664;7.626;2023-07-16T07:58:10;24.30;92.60
2363;DHT22;64265;51.664;7.626;2023-07-16T08:00:37;24.20;91.70
2363;DHT22;64265;51.664;7.626;2023-07-16T08:03:04;24.20;91.30
2363;DHT22;64265;51.664;7.626;2023-07-16T08:05:32;24.20;91.10
2363;DHT22;64265;51.664;7.626;2023-07-16T08:07:59;24.20;90.60
2363;DHT22;64265;51.664;7.626;2023-07-16T08:10:26;24.10;90.00
2363;DHT22;64265;51.664;7.626;2023-07-16T08:12:53;24.10;90.00
2363;DHT22;64265;51.664;7.626;2023-07-16T08:15:20;24.10;89.50
2363;DHT22;64265;51.664;7.626;2023-07-16T08:17:46;24.10;89.30
2363;DHT22;64265;51.664;7.626;2023-07-16T08:20:13;24.10;89.00
2363;DHT22;64265;51.664;7.626;2023-07-16T08:22:41;24.00;88.40
2363;DHT22;64265;51.664;7.626;2023-07-16T08:25:08;24.00;88.50
2363;DHT22;64265;51.664;7.626;2023-07-16T08:27:35;24.00;87.50
2363;DHT22;64265;51.664;7.626;2023-07-16T08:30:02;24.00;87.10
2363;DHT22;64265;51.664;7.626;2023-07-16T08:32:29;24.00;86.90
2363;DHT22;64265;51.664;7.626;2023-07-16T08:34:56;24.00;86.80
2363;DHT22;64265;51.664;7.626;2023-07-16T08:37:22;24.00;86.90
2363;DHT22;64265;51.664;7.626;2023-07-16T08:39:52;24.00;86.50
2363;DHT22;64265;51.664;7.626;2023-07-16T08:42:19;24.00;86.40
2363;DHT22;64265;51.664;7.626;2023-07-16T08:44:47;24.00;86.30
2363;DHT22;64265;51.664;7.626;2023-07-16T08:47:14;24.00;86.50
2363;DHT22;64265;51.664;7.626;2023-07-16T08:49:42;24.00;85.60
2363;DHT22;64265;51.664;7.626;2023-07-16T08:52:17;24.00;85.80
2363;DHT22;64265;51.664;7.626;2023-07-16T08:54:45;24.00;85.70
2363;DHT22;64265;51.664;7.626;2023-07-16T08:57:13;24.00;85.80
2363;DHT22;64265;51.664;7.626;2023-07-16T08:59:40;24.00;85.70
2363;DHT22;64265;51.664;7.626;2023-07-16T09:02:07;24.00;85.70
2363;DHT22;64265;51.664;7.626;2023-07-16T09:04:34;24.00;86.00
2363;DHT22;64265;51.664;7.626;2023-07-16T09:07:01;24.00;87.30
2363;DHT22;64265;51.664;7.626;2023-07-16T09:09:27;24.00;87.40
2363;DHT22;64265;51.664;7.626;2023-07-16T09:11:55;24.00;87.40
2363;DHT22;64265;51.664;7.626;2023-07-16T09:14:23;24.00;87.80
2363;DHT22;64265;51.664;7.626;2023-07-16T09:16:50;24.00;87.80
2363;DHT22;64265;51.664;7.626;2023-07-16T09:19:18;24.00;87.90
2363;DHT22;64265;51.664;7.626;2023-07-16T09:21:46;24.00;88.10
2363;DHT22;64265;51.664;7.626;2023-07-16T09:24:13;24.00;88.20
2363;DHT22;64265;51.664;7.626;2023-07-16T09:26:47;24.00;88.50
2363;DHT22;64265;51.664;7.626;2023-07-16T09:29:14;24.10;88.60
2363;DHT22;64265;51.664;7.626;2023-07-16T09:31:55;24.10;88.60
2363;DHT22;64265;51.664;7.626;2023-07-16T09:34:22;24.10;88.80
2363;DHT22;64265;51.664;7.626;2023-07-16T09:36:49;24.10;88.90
2363;DHT22;64265;51.664;7.626;2023-07-16T09:39:17;24.10;88.90
2363;DHT22;64265;51.664;7.626;2023-07-16T09:41:45;24.10;89.10
2363;DHT22;64265;51.664;7.626;2023-07-16T09:44:13;24.10;89.10
2363;DHT22;64265;51.664;7.626;2023-07-16T09:46:39;24.10;89.10
2363;DHT22;64265;51.664;7.626;2023-07-16T09:49:08;24.10;89.10
2363;DHT22;64265;51.664;7.626;2023-07-16T09:51:36;24.10;89.10
2363;DHT22;64265;51.664;7.626;2023-07-16T09:54:03;24.10;89.30
2363;DHT22;64265;51.664;7.626;2023-07-16T09:56:33;24.10;89.30
2363;DHT22;64265;51.664;7.626;2023-07-16T09:59:02;24.10;89.50
2363;DHT22;64265;51.664;7.626;2023-07-16T10:01:29;24.10;89.50
2363;DHT22;64265;51.664;7.626;2023-07-16T10:03:56;24.10;89.60
2363;DHT22;64265;51.664;7.626;2023-07-16T10:06:24;24.10;89.70
2363;DHT22;64265;51.664;7.626;2023-07-16T10:08:51;24.10;90.00
2363;DHT22;64265;51.664;7.626;2023-07-16T10:11:18;24.10;90.00
2363;DHT22;64265;51.664;7.626;2023-07-16T10:13:48;24.10;90.20
2363;DHT22;64265;51.664;7.626;2023-07-16T10:16:20;24.20;90.40
2363;DHT22;64265;51.664;7.626;2023-07-16T10:18:50;24.20;90.60
2363;DHT22;64265;51.664;7.626;2023-07-16T10:21:24;24.20;90.70
2363;DHT22;64265;51.664;7.626;2023-07-16T10:23:57;24.20;90.80
2363;DHT22;64265;51.664;7.626;2023-07-16T10:26:27;24.20;91.00
2363;DHT22;64265;51.664;7.626;2023-07-16T10:28:54;24.20;91.00
2363;DHT22;64265;51.664;7.626;2023-07-16T10:31:22;24.20;91.00
2363;DHT22;64265;51.664;7.626;2023-07-16T10:33:59;24.20;91.00
2363;DHT22;64265;51.664;7.626;2023-07-16T10:36:27;24.20;91.00
2363;DHT22;64265;51.664;7.626;2023-07-16T10:38:54;24.20;91.10
2363;DHT22;64265;51.664;7.626;2023-07-16T10:41:21;24.20;91.20
2363;DHT22;64265;51.664;7.626;2023-07-16T10:43:48;24.30;91.20
2363;DHT22;64265;51.664;7.626;2023-07-16T10:46:16;24.30;91.20
2363;DHT22;64265;51.664;7.626;2023-07-16T10:48:46;24.30;91.10
2363;DHT22;64265;51.664;7.626;2023-07-16T10:51:14;24.30;91.20
2363;DHT22;64265;51.664;7.626;2023-07-16T10:53:42;24.30;91.10
2363;DHT22;64265;51.664;7.626;2023-07-16T10:56:09;24.40;91.20
2363;DHT22;64265;51.664;7.626;2023-07-16T10:58:37;24.40;91.20
2363;DHT22;64265;51.664;7.626;2023-07-16T11:01:08;24.40;91.20
2363;DHT22;64265;51.664;7.626;2023-07-16T11:03:35;24.50;91.30
2363;DHT22;64265;51.664;7.626;2023-07-16T11:06:05;24.50;91.20
2363;DHT22;64265;51.664;7.626;2023-07-16T11:08:32;24.50;91.20
2363;DHT22;64265;51.664;7.626;2023-07-16T11:11:00;24.50;91.10
2363;DHT22;64265;51.664;7.626;2023-07-16T11:13:27;24.50;91.10
2363;DHT22;64265;51.664;7.626;2023-07-16T11:15:54;24.60;91.10
2363;DHT22;64265;51.664;7.626;2023-07-16T11:18:22;24.60;91.10
2363;DHT22;64265;51.664;7.626;2023-07-16T11:20:50;24.60;91.00
2363;DHT22;64265;51.664;7.626;2023-07-16T11:23:17;24.60;90.90
2363;DHT22;64265;51.664;7.626;2023-07-16T11:25:46;24.60;90.90
2363;DHT22;64265;51.664;7.626;2023-07-16T11:28:14;24.70;90.80
2363;DHT22;64265;51.664;7.626;2023-07-16T11:30:41;24.70;90.70
2363;DHT22;64265;51.664;7.626;2023-07-16T11:33:10;24.80;90.80
2363;DHT22;64265;51.664;7.626;2023-07-16T11:35:37;24.80;90.70
2363;DHT22;64265;51.664;7.626;2023-07-16T11:38:04;24.80;90.70
2363;DHT22;64265;51.664;7.626;2023-07-16T11:40:33;24.90;90.70
2363;DHT22;64265;51.664;7.626;2023-07-16T11:43:08;24.90;90.60
2363;DHT22;64265;51.664;7.626;2023-07-16T11:45:36;24.90;90.40
2363;DHT22;64265;51.664;7.626;2023-07-16T11:48:03;25.00;90.50
2363;DHT22;64265;51.664;7.626;2023-07-16T11:50:30;25.00;90.30
2363;DHT22;64265;51.664;7.626;2023-07-16T11:53:00;25.00;90.20
2363;DHT22;64265;51.664;7.626;2023-07-16T11:55:27;25.00;88.80
2363;DHT22;64265;51.664;7.626;2023-07-16T11:57:54;25.00;84.60
2363;DHT22;64265;51.664;7.626;2023-07-16T12:00:22;25.00;81.40
2363;DHT22;64265;51.664;7.626;2023-07-16T12:02:50;25.00;79.80
2363;DHT22;64265;51.664;7.626;2023-07-16T12:05:17;24.90;78.50
2363;DHT22;64265;51.664;7.626;2023-07-16T12:07:44;24.90;78.50
2363;DHT22;64265;51.664;7.626;2023-07-16T12:10:11;24.90;77.40
2363;DHT22;64265;51.664;7.626;2023-07-16T12:12:37;24.90;76.30
2363;DHT22;64265;51.664;7.626;2023-07-16T12:15:05;24.90;76.20
2363;DHT22;64265;51.664;7.626;2023-07-16T12:17:32;24.90;74.60
2363;DHT22;64265;51.664;7.626;2023-07-16T12:20:00;24.90;74.80
2363;DHT22;64265;51.664;7.626;2023-07-16T12:22:27;24.90;74.90
2363;DHT22;64265;51.664;7.626;2023-07-16T12:24:54;24.90;74.20
2363;DHT22;64265;51.664;7.626;2023-07-16T12:27:20;24.90;74.60
2363;DHT22;64265;51.664;7.626;2023-07-16T12:29:47;25.00;74.40
2363;DHT22;64265;51.664;7.626;2023-07-16T12:32:14;24.90;74.50
2363;DHT22;64265;51.664;7.626;2023-07-16T12:34:41;25.00;74.50
2363;DHT22;64265;51.664;7.626;2023-07-16T12:37:09;25.00;73.60
2363;DHT22;64265;51.664;7.626;2023-07-16T12:39:36;25.00;73.60
2363;DHT22;64265;51.664;7.626;2023-07-16T12:42:03;25.00;74.00
2363;DHT22;64265;51.664;7.626;2023-07-16T12:44:30;25.00;73.90
2363;DHT22;64265;51.664;7.626;2023-07-16T12:46:56;25.00;74.70
2363;DHT22;64265;51.664;7.626;2023-07-16T12:49:23;25.00;74.80
2363;DHT22;64265;51.664;7.626;2023-07-16T12:51:50;25.00;75.30
2363;DHT22;64265;51.664;7.626;2023-07-16T12:54:18;25.00;75.10
2363;DHT22;64265;51.664;7.626;2023-07-16T12:56:44;25.00;75.70
2363;DHT22;64265;51.664;7.626;2023-07-16T12:59:11;25.10;75.70
2363;DHT22;64265;51.664;7.626;2023-07-16T13:01:38;25.10;76.40
2363;DHT22;64265;51.664;7.626;2023-07-16T13:04:04;25.10;76.40
2363;DHT22;64265;51.664;7.626;2023-07-16T13:06:31;25.10;77.10
2363;DHT22;64265;51.664;7.626;2023-07-16T13:08:58;25.10;77.30
2363;DHT22;64265;51.664;7.626;2023-07-16T13:11:26;25.10;77.40
2363;DHT22;64265;51.664;7.626;2023-07-16T13:13:52;25.10;77.60
2363;DHT22;64265;51.664;7.626;2023-07-16T13:16:19;25.10;77.40
2363;DHT22;64265;51.664;7.626;2023-07-16T13:18:46;25.10;77.30
2363;DHT22;64265;51.664;7.626;2023-07-16T13:21:12;25.10;77.90
2363;DHT22;64265;51.664;7.626;2023-07-16T13:23:39;25.10;78.20
2363;DHT22;64265;51.664;7.626;2023-07-16T13:26:06;25.10;78.20
2363;DHT22;64265;51.664;7.626;2023-07-16T13:28:34;25.10;78.30
2363;DHT22;64265;51.664;7.626;2023-07-16T13:31:01;25.10;77.50
2363;DHT22;64265;51.664;7.626;2023-07-16T13:33:27;25.10;77.80
2363;DHT22;64265;51.664;7.626;2023-07-16T13:35:55;25.20;77.90
2363;DHT22;64265;51.664;7.626;2023-07-16T13:38:22;25.20;77.60
2363;DHT22;64265;51.664;7.626;2023-07-16T13:40:49;25.20;77.00
2363;DHT22;64265;51.664;7.626;2023-07-16T13:43:15;25.10;76.50
2363;DHT22;64265;51.664;7.626;2023-07-16T13:45:43;25.20;75.80
2363;DHT22;64265;51.664;7.626;2023-07-16T13:48:10;25.10;75.70
2363;DHT22;64265;51.664;7.626;2023-07-16T13:50:37;25.10;75.90
2363;DHT22;64265;51.664;7.626;2023-07-16T13:53:03;25.10;75.70
2363;DHT22;64265;51.664;7.626;2023-07-16T13:55:30;25.10;75.80
2363;DHT22;64265;51.664;7.626;2023-07-16T13:57:57;25.20;76.30
2363;DHT22;64265;51.664;7.626;2023-07-16T14:00:24;25.20;76.70
2363;DHT22;64265;51.664;7.626;2023-07-16T14:02:52;25.20;76.80
2363;DHT22;64265;51.664;7.626;2023-07-16T14:05:18;25.20;77.00
2363;DHT22;64265;51.664;7.626;2023-07-16T14:07:46;25.20;77.00
2363;DHT22;64265;51.664;7.626;2023-07-16T14:10:13;25.30;77.30
2363;DHT22;64265;51.664;7.626;2023-07-16T14:12:40;25.20;77.30
2363;DHT22;64265;51.664;7.626;2023-07-16T14:15:07;25.20;77.40
2363;DHT22;64265;51.664;7.626;2023-07-16T14:17:34;25.30;77.70
2363;DHT22;64265;51.664;7.626;2023-07-16T14:20:02;25.30;77.90
2363;DHT22;64265;51.664;7.626;2023-07-16T14:22:29;25.30;78.10
2363;DHT22;64265;51.664;7.626;2023-07-16T14:24:55;25.30;78.10
2363;DHT22;64265;51.664;7.626;2023-07-16T14:27:22;25.30;78.20
2363;DHT22;64265;51.664;7.626;2023-07-16T14:29:49;25.30;78.40
2363;DHT22;64265;51.664;7.626;2023-07-16T14:32:15;25.30;78.50
2363;DHT22;64265;51.664;7.626;2023-07-16T14:34:42;25.30;78.70
2363;DHT22;64265;51.664;7.626;2023-07-16T14:37:10;25.40;78.70
2363;DHT22;64265;51.664;7.626;2023-07-16T14:39:38;25.40;78.90
2363;DHT22;64265;51.664;7.626;2023-07-16T14:42:04;25.40;79.00
2363;DHT22;64265;51.664;7.626;2023-07-16T14:44:32;25.40;79.00
2363;DHT22;64265;51.664;7.626;2023-07-16T14:46:59;25.50;79.20
2363;DHT22;64265;51.664;7.626;2023-07-16T14:49:25;25.50;79.20
2363;DHT22;64265;51.664;7.626;2023-07-16T14:51:52;25.50;79.30
2363;DHT22;64265;51.664;7.626;2023-07-16T14:54:20;25.50;79.20
2363;DHT22;64265;51.664;7.626;2023-07-16T14:56:47;25.50;79.30
2363;DHT22;64265;51.664;7.626;2023-07-16T14:59:14;25.50;79.40
2363;DHT22;64265;51.664;7.626;2023-07-16T15:01:40;25.50;79.40
2363;DHT22;64265;51.664;7.626;2023-07-16T15:04:07;25.60;79.60
2363;DHT22;64265;51.664;7.626;2023-07-16T15:06:34;25.60;79.50
2363;DHT22;64265;51.664;7.626;2023-07-16T15:09:00;25.60;79.60
2363;DHT22;64265;51.664;7.626;2023-07-16T15:11:29;25.60;79.80
2363;DHT22;64265;51.664;7.626;2023-07-16T15:13:56;25.70;79.70
2363;DHT22;64265;51.664;7.626;2023-07-16T15:16:22;25.70;79.80
2363;DHT22;64265;51.664;7.626;2023-07-16T15:18:49;25.70;79.80
2363;DHT22;64265;51.664;7.626;2023-07-16T15:21:16;25.70;79.90
2363;DHT22;64265;51.664;7.626;2023-07-16T15:23:43;25.80;80.00
2363;DHT22;64265;51.664;7.626;2023-07-16T15:26:11;25.80;80.00
2363;DHT22;64265;51.664;7.626;2023-07-16T15:28:39;25.80;80.00
2363;DHT22;64265;51.664;7.626;2023-07-16T15:31:08;25.90;80.10
2363;DHT22;64265;51.664;7.626;2023-07-16T15:33:37;25.80;80.10
2363;DHT22;64265;51.664;7.626;2023-07-16T15:36:04;25.80;80.10
2363;DHT22;64265;51.664;7.626;2023-07-16T15:38:31;25.90;79.40
2363;DHT22;64265;51.664;7.626;2023-07-16T15:40:57;25.90;78.40
2363;DHT22;64265;51.664;7.626;2023-07-16T15:43:25;25.90;75.70
2363;DHT22;64265;51.664;7.626;2023-07-16T15:45:53;25.80;75.00